Potirendaba, Brazil
Current Conditions -  °F | °C
As of 8:00 PM on Monday 22 Dec 2014 (Local Time) from SBSR Reporting Station
Light Rain Light Rain  
Wind Chill: 73°   Ceiling: 500
Heat Index: 73°   Visibility: 2.5mi
Dew Point: 70°   Wind: 15mph
Humidity: 88%   Direction: 240°WSW
Pressure: NA   Gusts: NA
Location:  21.04°S, 49.38°W
Report Text: SBSR 222200Z 24013KT 4000 -RA BR BKN005 BKN015 OVC070 23/21 Q1012
Loading
Personal Weather Stations






























Interactive Weather Map New forecast layout! Learn more

10-Day Weather Forecast

Advertisements
Track Severe Weather on mobile